Rochebaucourt, Canada
Current Conditions -  °F | °C
As of 6:00 PM on Sunday 21 Dec 2014 (Local Time) from CYVO Reporting Station
Few Clouds Few Clouds  
Wind Chill:   Ceiling: Unl
Heat Index: 14°   Visibility: 15mi
Dew Point: 12°   Wind: 5mph
Humidity: 93%   Direction: 170°S
Pressure: 30.24"   Gusts: NA
Location:  48.67°N, 77.47°W
Report Text: CYVO 212300Z 17004KT 15SM FEW080 M10/M11 A3024 RMK AC2 SLP277
Loading
Personal Weather Stations






























Interactive Weather Map New forecast layout! Learn more

10-Day Weather Forecast

Advertisements
Track Severe Weather on mobile